createdAt,value
2023-09-12T00:00:00.140Z,317.5
2023-09-12T00:05:00.192Z,310
2023-09-12T00:10:00.118Z,307.5
2023-09-12T00:15:00.152Z,310
2023-09-12T00:20:00.149Z,317.5
2023-09-12T00:25:00.129Z,302.5
2023-09-12T00:30:00.151Z,315
2023-09-12T00:35:00.147Z,315
2023-09-12T00:40:00.117Z,302.5
2023-09-12T00:45:00.162Z,305
2023-09-12T00:50:00.152Z,327.5
2023-09-12T00:55:00.132Z,315
2023-09-12T01:00:00.149Z,307.5
2023-09-12T01:05:00.120Z,320
2023-09-12T01:10:00.117Z,315
2023-09-12T01:15:00.176Z,310
2023-09-12T01:20:00.126Z,307.5
2023-09-12T01:25:00.124Z,307.5
2023-09-12T01:30:00.116Z,312.5
2023-09-12T01:35:00.143Z,312.5
2023-09-12T01:40:00.153Z,307.5
2023-09-12T01:45:00.227Z,320
2023-09-12T01:50:00.147Z,325
2023-09-12T01:55:00.108Z,302.5
2023-09-12T02:00:00.099Z,300
2023-09-12T02:05:00.164Z,310
2023-09-12T02:10:00.121Z,310
2023-09-12T02:15:00.120Z,310
2023-09-12T02:20:00.120Z,302.5
2023-09-12T02:25:00.140Z,307.5
2023-09-12T02:30:00.131Z,300
2023-09-12T02:35:00.271Z,300
2023-09-12T02:40:00.143Z,315
2023-09-12T02:45:00.122Z,315
2023-09-12T02:50:00.129Z,317.5
2023-09-12T02:55:00.147Z,317.5
2023-09-12T03:00:00.112Z,317.5
2023-09-12T03:05:00.135Z,317.5
2023-09-12T03:10:00.209Z,317.5
2023-09-12T03:15:00.126Z,312.5
2023-09-12T03:20:00.114Z,305
2023-09-12T03:25:00.106Z,300
2023-09-12T03:30:00.106Z,305
2023-09-12T03:35:00.264Z,302.5
2023-09-12T03:40:00.099Z,302.5
2023-09-12T03:45:00.152Z,322.5
2023-09-12T03:50:00.132Z,312.5
2023-09-12T03:55:00.141Z,312.5
2023-09-12T04:00:00.098Z,307.5
2023-09-12T04:05:00.237Z,305
2023-09-12T04:10:00.110Z,307.5
2023-09-12T04:15:00.102Z,307.5
2023-09-12T04:20:00.114Z,320
2023-09-12T04:25:00.098Z,320
2023-09-12T04:30:00.120Z,292.5
2023-09-12T04:35:00.111Z,327.5
2023-09-12T04:40:00.141Z,2.5
2023-09-12T04:45:00.112Z,7.5
2023-09-12T04:50:00.139Z,15
2023-09-12T04:55:00.167Z,60
2023-09-12T05:00:00.109Z,62.5
2023-09-12T05:05:00.164Z,60
2023-09-12T05:10:00.184Z,60
2023-09-12T05:15:00.229Z,300
2023-09-12T05:20:00.180Z,305
2023-09-12T05:25:00.132Z,322.5
2023-09-12T05:30:00.118Z,322.5
2023-09-12T05:35:10.895Z,305
2023-09-12T05:40:00.115Z,312.5
2023-09-12T05:45:00.110Z,312.5
2023-09-12T05:50:00.163Z,315
2023-09-12T05:55:00.117Z,315
2023-09-12T06:00:00.128Z,0
2023-09-12T06:05:00.097Z,15
2023-09-12T06:10:00.101Z,5
2023-09-12T06:15:00.107Z,345
2023-09-12T06:20:00.138Z,350
2023-09-12T06:25:00.129Z,10
2023-09-12T06:30:00.114Z,2.5
2023-09-12T06:35:00.142Z,357.5
2023-09-12T06:40:00.096Z,7.5
2023-09-12T06:45:00.108Z,2.5
2023-09-12T06:50:00.145Z,20
2023-09-12T06:55:00.126Z,57.5
2023-09-12T07:00:00.096Z,30
2023-09-12T07:05:00.117Z,32.5
2023-09-12T07:10:15.901Z,22.5
2023-09-12T07:15:00.103Z,40
2023-09-12T07:20:00.142Z,35
2023-09-12T07:25:00.131Z,37.5
2023-09-12T07:30:00.116Z,50
2023-09-12T07:35:00.146Z,32.5
2023-09-12T07:40:00.139Z,37.5
2023-09-12T07:45:00.093Z,47.5
2023-09-12T07:50:00.109Z,35
2023-09-12T07:55:00.103Z,15
2023-09-12T08:00:00.095Z,25
2023-09-12T08:05:00.188Z,22.5
2023-09-12T08:10:00.145Z,25
2023-09-12T08:15:00.141Z,62.5
2023-09-12T08:20:00.118Z,82.5
2023-09-12T08:25:00.136Z,77.5
2023-09-12T08:30:00.164Z,15
2023-09-12T08:35:00.125Z,40
2023-09-12T08:40:00.189Z,35
2023-09-12T08:45:00.118Z,67.5
2023-09-12T08:50:00.113Z,45
2023-09-12T08:55:00.129Z,77.5
2023-09-12T09:00:00.093Z,55
2023-09-12T09:05:00.140Z,70
2023-09-12T09:10:00.133Z,75
2023-09-12T09:15:00.107Z,80
2023-09-12T09:20:00.149Z,62.5
2023-09-12T09:25:00.112Z,52.5
2023-09-12T09:30:00.112Z,65
2023-09-12T09:35:00.115Z,60
2023-09-12T09:40:00.134Z,80
2023-09-12T09:45:00.099Z,67.5
2023-09-12T09:50:00.110Z,80
2023-09-12T09:55:00.123Z,105
2023-09-12T10:00:00.096Z,75
2023-09-12T10:05:00.701Z,152.5
2023-09-12T10:10:00.183Z,180
2023-09-12T10:15:00.124Z,300
2023-09-12T10:20:00.121Z,312.5
2023-09-12T10:25:00.179Z,110
2023-09-12T10:30:00.116Z,50
2023-09-12T10:35:00.117Z,102.5
2023-09-12T10:40:00.200Z,95
2023-09-12T10:45:00.117Z,100
2023-09-12T10:50:00.139Z,80
2023-09-12T10:55:00.212Z,75
2023-09-12T11:00:00.095Z,85
2023-09-12T11:05:00.113Z,170
2023-09-12T11:10:00.195Z,140
2023-09-12T11:15:00.115Z,65
2023-09-12T11:20:00.098Z,35
2023-09-12T11:25:00.168Z,112.5
2023-09-12T11:30:00.129Z,157.5
2023-09-12T11:35:00.139Z,117.5
2023-09-12T11:40:00.200Z,70
2023-09-12T11:45:00.131Z,115
2023-09-12T11:50:00.109Z,70
2023-09-12T11:55:00.152Z,105
2023-09-12T12:00:00.135Z,72.5
2023-09-12T12:05:00.251Z,110
2023-09-12T12:10:00.116Z,140
2023-09-12T12:15:00.110Z,110
2023-09-12T12:20:00.105Z,142.5
2023-09-12T12:25:00.172Z,127.5
2023-09-12T12:30:00.118Z,172.5
2023-09-12T12:35:45.875Z,185
2023-09-12T12:40:00.281Z,77.5
2023-09-12T12:45:00.101Z,197.5
2023-09-12T12:50:00.152Z,152.5
2023-09-12T12:55:00.177Z,200
2023-09-12T13:00:00.092Z,112.5
2023-09-12T13:05:00.190Z,245
2023-09-12T13:10:00.155Z,312.5
2023-09-12T13:15:00.133Z,90
2023-09-12T13:20:00.152Z,200
2023-09-12T13:25:00.172Z,135
2023-09-12T13:30:00.798Z,115
2023-09-12T13:35:00.138Z,147.5
2023-09-12T13:40:00.213Z,85
2023-09-12T13:45:00.150Z,170
2023-09-12T13:50:00.150Z,135
2023-09-12T13:55:00.161Z,127.5
2023-09-12T14:00:00.097Z,120
2023-09-12T14:05:11.539Z,130
2023-09-12T14:10:00.171Z,100
2023-09-12T14:15:07.553Z,112.5
2023-09-12T14:20:00.207Z,117.5
2023-09-12T14:25:00.248Z,85
2023-09-12T14:30:00.100Z,97.5
2023-09-12T14:35:00.110Z,0
2023-09-12T14:40:00.159Z,32.5
2023-09-12T14:45:00.124Z,10
2023-09-12T14:50:00.318Z,357.5
2023-09-12T14:55:00.208Z,25
2023-09-12T15:00:00.108Z,2.5
2023-09-12T15:05:00.120Z,12.5
2023-09-12T15:10:00.210Z,45
2023-09-12T15:15:00.102Z,2.5
2023-09-12T15:20:00.110Z,27.5
2023-09-12T15:25:00.152Z,30
2023-09-12T15:30:00.127Z,5
2023-09-12T15:35:03.185Z,50
2023-09-12T15:40:00.121Z,35
2023-09-12T15:45:02.600Z,355
2023-09-12T15:50:00.127Z,57.5
2023-09-12T15:55:00.166Z,55
2023-09-12T16:00:00.113Z,42.5
2023-09-12T16:05:00.255Z,42.5
2023-09-12T16:10:00.216Z,17.5
2023-09-12T16:15:00.113Z,30
2023-09-12T16:20:00.119Z,22.5
2023-09-12T16:25:00.168Z,30
2023-09-12T16:30:00.124Z,15
2023-09-12T16:35:00.242Z,357.5
2023-09-12T16:40:00.133Z,7.5
2023-09-12T16:45:00.108Z,307.5
2023-09-12T16:50:00.115Z,302.5
2023-09-12T16:55:00.124Z,315
2023-09-12T17:00:00.169Z,310
2023-09-12T17:05:00.122Z,310
2023-09-12T17:10:00.247Z,295
2023-09-12T17:15:00.189Z,290
2023-09-12T17:20:00.103Z,282.5
2023-09-12T17:25:00.167Z,2.5
2023-09-12T17:30:00.130Z,7.5
2023-09-12T17:35:00.114Z,325
2023-09-12T17:40:00.207Z,255
2023-09-12T17:45:00.137Z,247.5
2023-09-12T17:50:00.137Z,310
2023-09-12T17:55:00.171Z,307.5
2023-09-12T18:00:00.101Z,280
2023-09-12T18:05:00.163Z,305
2023-09-12T18:10:00.124Z,307.5
2023-09-12T18:15:00.117Z,315
2023-09-12T18:20:00.120Z,307.5
2023-09-12T18:25:00.236Z,310
2023-09-12T18:30:00.097Z,312.5
2023-09-12T18:35:00.148Z,315
2023-09-12T18:40:00.195Z,320
2023-09-12T18:45:00.097Z,315
2023-09-12T18:50:00.129Z,327.5
2023-09-12T18:55:00.223Z,312.5
2023-09-12T19:00:00.101Z,310
2023-09-12T19:05:00.289Z,307.5
2023-09-12T19:10:00.191Z,315
2023-09-12T19:15:00.105Z,315
2023-09-12T19:20:00.140Z,310
2023-09-12T19:25:00.171Z,312.5
2023-09-12T19:30:00.139Z,315
2023-09-12T19:35:00.133Z,317.5
2023-09-12T19:40:00.190Z,307.5
2023-09-12T19:45:00.157Z,315
2023-09-12T19:50:00.119Z,317.5
2023-09-12T19:55:00.142Z,312.5
2023-09-12T20:00:00.131Z,312.5
2023-09-12T20:05:00.149Z,312.5
2023-09-12T20:10:00.128Z,312.5
2023-09-12T20:15:00.131Z,315
2023-09-12T20:20:00.138Z,305
2023-09-12T20:25:00.209Z,262.5
2023-09-12T20:30:00.124Z,230
2023-09-12T20:35:00.148Z,260
2023-09-12T20:40:00.156Z,265
2023-09-12T20:45:00.123Z,295
2023-09-12T20:50:00.132Z,290
2023-09-12T20:55:00.166Z,312.5
2023-09-12T21:00:00.116Z,315
2023-09-12T21:05:00.116Z,347.5
2023-09-12T21:10:00.160Z,60
2023-09-12T21:15:00.110Z,55
2023-09-12T21:20:00.136Z,35
2023-09-12T21:25:00.144Z,345
2023-09-12T21:30:00.157Z,310
2023-09-12T21:35:00.130Z,305
2023-09-12T21:40:00.188Z,310
2023-09-12T21:45:00.097Z,337.5
2023-09-12T21:50:00.115Z,317.5
2023-09-12T21:55:00.208Z,322.5
2023-09-12T22:00:00.092Z,322.5
2023-09-12T22:05:00.153Z,317.5
2023-09-12T22:10:00.208Z,337.5
2023-09-12T22:15:00.116Z,20
2023-09-12T22:20:00.117Z,45
2023-09-12T22:25:00.223Z,47.5
2023-09-12T22:30:00.116Z,70
2023-09-12T22:35:00.118Z,62.5
2023-09-12T22:40:00.140Z,330
2023-09-12T22:45:00.097Z,245
2023-09-12T22:50:00.123Z,217.5
2023-09-12T22:55:00.161Z,220
2023-09-12T23:00:00.093Z,235
2023-09-12T23:05:00.226Z,325
2023-09-12T23:10:00.149Z,227.5
2023-09-12T23:15:00.105Z,280
2023-09-12T23:20:00.134Z,305
2023-09-12T23:25:00.150Z,305
2023-09-12T23:30:00.098Z,312.5
2023-09-12T23:35:00.139Z,302.5
2023-09-12T23:40:00.204Z,250
2023-09-12T23:45:00.108Z,245
2023-09-12T23:50:00.127Z,255
2023-09-12T23:55:00.173Z,255
